Time;durP1;ratioP1;P1;durP2;ratioP2;P2;SDS_P1;SDS_P2;PMS_P1;PMS_P2;Temp;Humidity;BMP_temperature;BMP_pressure;BME280_temperature;BME280_humidity;BME280_pressure;Samples;Min_cycle;Max_cycle;Signal;HPM_P1;HPM_P2
2021/12/23 00:00:20;;;;;;;0.20;0.20;;;;;;;19.37;38.14;101315.59;5162065;27;20039;-36
2021/12/23 00:02:46;;;;;;;0.20;0.20;;;;;;;19.37;38.15;101323.88;5162260;27;20043;-33
2021/12/23 00:05:11;;;;;;;0.20;0.20;;;;;;;19.37;38.10;101312.00;5161511;27;20054;-34
2021/12/23 00:07:37;;;;;;;0.20;0.20;;;;;;;19.36;38.31;101293.78;5162406;27;20043;-32
2021/12/23 00:10:06;;;;;;;0.20;0.20;;;;;;;19.36;38.27;101291.84;5130061;27;20078;-34
2021/12/23 00:12:40;;;;;;;0.20;0.20;;;;;;;19.36;38.09;101322.22;5161902;27;20117;-32
2021/12/23 00:15:15;;;;;;;0.20;0.20;;;;;;;19.35;38.14;101323.34;5161410;27;20469;-33
2021/12/23 00:17:56;;;;;;;0.20;0.20;;;;;;;19.35;38.25;101323.34;5159731;27;20046;-33
2021/12/23 00:23:34;;;;;;;0.20;0.20;;;;;;;19.35;38.14;101297.66;5160536;27;20112;-33
2021/12/23 00:25:49;;;;;;;0.20;0.20;;;;;;;19.35;38.14;101279.16;5110998;27;20051;-32
2021/12/23 00:28:16;;;;;;;0.20;0.20;;;;;;;19.35;38.12;101275.56;5142161;27;20419;-35
2021/12/23 00:30:42;;;;;;;0.20;0.20;;;;;;;19.36;38.28;101277.22;5143547;27;20049;-33
2021/12/23 00:33:07;;;;;;;0.20;0.20;;;;;;;19.34;38.12;101260.91;5139822;27;20035;-32
2021/12/23 00:35:33;;;;;;;0.20;0.20;;;;;;;19.34;38.21;101243.50;5141910;27;20046;-35
2021/12/23 00:38:04;;;;;;;0.20;0.20;;;;;;;19.34;38.53;101249.03;5140216;27;20441;-35
2021/12/23 00:40:29;;;;;;;0.20;0.20;;;;;;;19.35;38.17;101242.41;5119954;27;20496;-35
2021/12/23 00:42:55;;;;;;;0.20;0.20;;;;;;;19.33;38.37;101239.91;5137683;27;20138;-36
2021/12/23 00:45:21;;;;;;;0.20;0.20;;;;;;;19.33;38.41;101239.91;5120162;27;20103;-37
2021/12/23 00:47:47;;;;;;;0.20;0.20;;;;;;;19.34;38.34;101232.47;5121387;27;20181;-32
2021/12/23 00:50:13;;;;;;;0.20;0.20;;;;;;;19.33;38.29;101241.84;5119283;27;20038;-33
2021/12/23 00:52:40;;;;;;;0.20;0.20;;;;;;;19.34;38.25;101232.47;5138295;27;20642;-35
2021/12/23 00:55:08;;;;;;;0.20;0.20;;;;;;;19.35;38.24;101225.84;5123943;27;20050;-34
2021/12/23 00:57:38;;;;;;;0.20;0.20;;;;;;;19.33;38.46;101198.50;5139818;27;20438;-34
2021/12/23 01:00:10;;;;;;;0.20;0.20;;;;;;;19.33;38.45;101200.44;5126656;27;20532;-34
2021/12/23 01:02:36;;;;;;;0.20;0.20;;;;;;;19.32;38.35;101202.38;5121408;27;20119;-33
2021/12/23 01:05:04;;;;;;;0.20;0.20;;;;;;;19.32;38.50;101213.41;5141236;27;20042;-33
2021/12/23 01:07:29;;;;;;;0.20;0.20;;;;;;;19.32;38.24;101213.41;5139827;27;20454;-34
2021/12/23 01:09:55;;;;;;;0.20;0.20;;;;;;;19.32;38.54;101216.16;5138609;27;20070;-37
2021/12/23 01:12:27;;;;;;;0.20;0.20;;;;;;;19.31;38.50;101222.81;5138613;27;20051;-33
2021/12/23 01:15:09;;;;;;;0.20;0.20;;;;;;;19.32;38.20;101213.41;5136603;27;20243;-31
2021/12/23 01:17:53;;;;;;;0.20;0.20;;;;;;;19.30;38.36;101208.16;5139432;27;20055;-33
2021/12/23 01:20:25;;;;;;;0.20;0.20;;;;;;;19.32;38.33;101201.53;5140225;27;20043;-35
2021/12/23 01:22:53;;;;;;;0.20;0.20;;;;;;;19.31;38.51;101197.94;5106719;27;20401;-32
2021/12/23 01:25:18;;;;;;;0.20;0.20;;;;;;;19.31;38.39;101186.91;5138170;27;20049;-34
2021/12/23 01:27:44;;;;;;;0.20;0.20;;;;;;;19.32;38.35;101182.22;5139932;27;20186;-34
2021/12/23 01:30:10;;;;;;;0.20;0.20;;;;;;;19.31;38.21;101178.63;5139272;27;20065;-33
2021/12/23 01:32:36;;;;;;;0.10;0.10;;;;;;;19.30;38.39;101183.31;5136856;27;20065;-32
2021/12/23 01:35:02;;;;;;;0.20;0.20;;;;;;;19.31;38.36;101195.19;5125406;27;20047;-34
2021/12/23 01:37:28;;;;;;;0.20;0.20;;;;;;;19.31;38.23;101181.38;5127250;27;20039;-34
2021/12/23 01:39:53;;;;;;;0.20;0.20;;;;;;;19.30;38.57;101160.41;5129943;27;20039;-36
2021/12/23 01:42:19;;;;;;;0.20;0.20;;;;;;;19.30;38.61;101166.75;5123652;27;20078;-33
2021/12/23 01:44:45;;;;;;;0.20;0.20;;;;;;;19.30;38.28;101168.69;5122629;27;20497;-35
2021/12/23 01:47:10;;;;;;;0.20;0.20;;;;;;;19.29;38.10;101167.00;5128742;27;20047;-33
2021/12/23 01:49:36;;;;;;;0.20;0.20;;;;;;;19.29;38.39;101159.53;5127333;27;20478;-34
2021/12/23 01:52:02;;;;;;;0.20;0.20;;;;;;;19.30;38.53;101160.41;5126446;27;20393;-34
2021/12/23 01:54:28;;;;;;;0.20;0.20;;;;;;;19.29;38.25;101156.78;5130062;27;20458;-33
2021/12/23 01:56:54;;;;;;;0.20;0.20;;;;;;;19.29;38.20;101158.72;5125277;27;20058;-34
2021/12/23 01:59:20;;;;;;;0.20;0.20;;;;;;;19.28;38.61;101157.91;5109485;27;20084;-32
2021/12/23 02:01:46;;;;;;;0.20;0.20;;;;;;;19.29;38.42;101164.25;5128869;27;20162;-35
2021/12/23 02:04:12;;;;;;;0.20;0.20;;;;;;;19.30;38.25;101165.94;5127759;27;20039;-33
2021/12/23 02:06:37;;;;;;;0.20;0.20;;;;;;;19.29;38.24;101172.53;5125135;27;20039;-35
2021/12/23 02:09:04;;;;;;;0.20;0.20;;;;;;;19.28;38.45;101149.63;5126691;27;20051;-33
2021/12/23 02:11:30;;;;;;;0.20;0.20;;;;;;;19.30;38.27;101157.63;5103998;28;20402;-33
2021/12/23 02:13:56;;;;;;;0.20;0.20;;;;;;;19.29;38.37;101142.16;5112649;27;20061;-33
2021/12/23 02:16:22;;;;;;;0.20;0.20;;;;;;;19.28;38.57;101129.47;5120060;27;20047;-34
2021/12/23 02:18:48;;;;;;;0.20;0.20;;;;;;;19.28;38.51;101113.72;5115506;27;20040;-34
2021/12/23 02:21:13;;;;;;;0.20;0.20;;;;;;;19.28;38.43;101104.59;5109562;28;20054;-33
2021/12/23 02:23:40;;;;;;;0.20;0.20;;;;;;;19.28;38.34;101099.09;5106950;28;20048;-32
2021/12/23 02:26:06;;;;;;;0.20;0.20;;;;;;;19.28;38.30;101102.66;5090515;28;20402;-33
2021/12/23 02:28:32;;;;;;;0.20;0.20;;;;;;;19.28;38.43;101110.13;5107861;28;20039;-32
2021/12/23 02:30:58;;;;;;;0.20;0.20;;;;;;;19.27;38.48;101117.59;5090764;28;20039;-33
2021/12/23 02:33:25;;;;;;;0.20;0.20;;;;;;;19.26;38.33;101121.47;5089325;28;20229;-31
2021/12/23 02:35:55;;;;;;;0.20;0.20;;;;;;;19.26;38.54;101120.63;5091541;28;20421;-31
2021/12/23 02:38:20;;;;;;;0.20;0.20;;;;;;;19.27;38.29;101127.81;5089916;28;20092;-32
2021/12/23 02:40:47;;;;;;;0.20;0.20;;;;;;;19.27;38.80;101122.28;5104742;28;20048;-31
2021/12/23 02:43:19;;;;;;;0.20;0.20;;;;;;;19.27;38.37;101127.81;5086644;28;20044;-31
2021/12/23 02:45:48;;;;;;;0.20;0.20;;;;;;;19.27;38.42;101122.28;5104690;28;20077;-31
2021/12/23 02:48:17;;;;;;;0.20;0.20;;;;;;;19.25;38.27;101105.97;5104500;28;20159;-32
2021/12/23 02:50:45;;;;;;;0.20;0.20;;;;;;;19.27;38.62;101103.78;5086538;28;20062;-31
2021/12/23 02:53:11;;;;;;;0.20;0.20;;;;;;;19.26;38.44;101095.78;5104877;28;20463;-31
2021/12/23 02:55:37;;;;;;;0.20;0.20;;;;;;;19.26;38.33;101093.84;5104924;28;20036;-31
2021/12/23 02:58:03;;;;;;;0.20;0.20;;;;;;;19.27;38.50;101086.41;5106492;28;20039;-33
2021/12/23 03:00:30;;;;;;;0.20;0.20;;;;;;;19.26;38.52;101084.75;5106357;28;20048;-33
2021/12/23 03:02:56;;;;;;;0.20;0.20;;;;;;;19.26;38.43;101088.31;5104500;28;20047;-31
2021/12/23 03:05:22;;;;;;;0.20;0.20;;;;;;;19.25;38.46;101091.34;5104744;28;20048;-33
2021/12/23 03:07:48;;;;;;;0.20;0.20;;;;;;;19.26;38.55;101101.31;5104364;28;20051;-31
2021/12/23 03:10:14;;;;;;;0.20;0.20;;;;;;;19.27;38.37;101097.44;5104304;28;20448;-31
2021/12/23 03:12:40;;;;;;;0.20;0.20;;;;;;;19.26;38.59;101084.75;5108504;28;20050;-31
2021/12/23 03:15:06;;;;;;;0.20;0.20;;;;;;;19.25;38.33;101092.16;5104224;28;20077;-31
2021/12/23 03:17:31;;;;;;;0.20;0.20;;;;;;;19.25;38.42;101083.06;5108479;28;20043;-32
2021/12/23 03:19:57;;;;;;;0.20;0.20;;;;;;;19.25;38.38;101089.41;5072981;28;20184;-32
2021/12/23 03:22:23;;;;;;;0.20;0.20;;;;;;;19.26;38.38;101084.75;5105138;28;20363;-31
2021/12/23 03:24:48;;;;;;;0.20;0.20;;;;;;;19.23;38.46;101077.84;5103143;28;20042;-31
2021/12/23 03:27:14;;;;;;;0.20;0.20;;;;;;;19.25;38.30;101080.31;5107705;28;20039;-31
2021/12/23 03:29:40;;;;;;;0.20;0.20;;;;;;;19.24;38.30;101073.97;5108161;28;20410;-32
2021/12/23 03:32:06;;;;;;;0.20;0.20;;;;;;;19.24;38.60;101064.84;5105749;28;20074;-31
2021/12/23 03:34:31;;;;;;;0.20;0.20;;;;;;;19.23;38.20;101060.44;5105094;28;20040;-31
2021/12/23 03:36:57;;;;;;;0.20;0.20;;;;;;;19.23;38.29;101057.69;5103546;28;20735;-31
2021/12/23 03:39:23;;;;;;;0.20;0.20;;;;;;;19.23;38.50;101069.56;5105549;28;20051;-31
2021/12/23 03:41:49;;;;;;;0.20;0.20;;;;;;;19.23;38.24;101075.06;5093395;28;20055;-33
2021/12/23 03:44:15;;;;;;;0.20;0.20;;;;;;;19.24;38.20;101079.47;5103761;28;20123;-31
2021/12/23 03:46:41;;;;;;;0.20;0.20;;;;;;;19.24;38.30;101090.53;5104753;28;20436;-31
2021/12/23 03:49:08;;;;;;;0.20;0.20;;;;;;;19.24;38.54;101076.72;5107372;28;20047;-32
2021/12/23 03:51:34;;;;;;;0.20;0.20;;;;;;;19.24;38.27;101073.97;5086588;28;20070;-32
2021/12/23 03:54:00;;;;;;;0.20;0.20;;;;;;;19.23;38.53;101065.97;5086514;28;20108;-32
2021/12/23 03:56:26;;;;;;;0.20;0.20;;;;;;;19.22;38.38;101051.34;5108931;27;20568;-32
2021/12/23 03:58:54;;;;;;;0.20;0.20;;;;;;;19.22;38.64;101045.00;5106041;28;20138;-32
2021/12/23 04:01:22;;;;;;;0.20;0.20;;;;;;;19.22;38.32;101043.06;5088645;28;20047;-32
2021/12/23 04:03:50;;;;;;;0.20;0.20;;;;;;;19.22;38.18;101040.28;5107905;28;20648;-32
2021/12/23 04:06:15;;;;;;;0.20;0.20;;;;;;;19.22;38.46;101039.47;5090604;28;20039;-32
2021/12/23 04:08:41;;;;;;;0.20;0.20;;;;;;;19.22;38.70;101032.00;5108134;28;20093;-32
2021/12/23 04:11:07;;;;;;;0.20;0.20;;;;;;;19.23;38.18;101027.31;5109203;28;20044;-32
2021/12/23 04:13:32;;;;;;;0.20;0.20;;;;;;;19.22;38.56;101029.25;5107324;28;20448;-33
2021/12/23 04:15:58;;;;;;;0.20;0.20;;;;;;;19.22;38.51;101056.03;5107151;28;20050;-35
2021/12/23 04:18:24;;;;;;;0.20;0.20;;;;;;;19.21;38.39;101046.06;5104486;28;20052;-33
2021/12/23 04:20:56;;;;;;;0.20;0.20;;;;;;;19.22;38.39;101031.19;5103271;28;20324;-32
2021/12/23 04:23:28;;;;;;;0.20;0.20;;;;;;;19.21;38.31;101019.31;5101884;28;20082;-32
2021/12/23 04:25:54;;;;;;;0.20;0.20;;;;;;;19.22;38.51;101017.38;5088507;28;20084;-32
2021/12/23 04:28:20;;;;;;;0.20;0.20;;;;;;;19.21;38.30;101024.84;5087371;28;20043;-32
2021/12/23 04:30:46;;;;;;;0.20;0.20;;;;;;;19.21;38.58;101002.75;5084686;28;20040;-31
2021/12/23 04:33:12;;;;;;;0.20;0.20;;;;;;;19.21;38.31;101004.66;5103230;28;20043;-34
2021/12/23 04:35:38;;;;;;;0.20;0.20;;;;;;;19.21;38.54;101015.69;5087852;28;20055;-32
2021/12/23 04:38:04;;;;;;;0.20;0.20;;;;;;;19.21;38.51;101018.47;5105801;28;20168;-32
2021/12/23 04:40:30;;;;;;;0.20;0.20;;;;;;;19.21;38.26;101001.91;5068394;28;20062;-31
2021/12/23 04:42:57;;;;;;;0.20;0.20;;;;;;;19.21;38.56;100999.13;5105862;28;20505;-32
2021/12/23 04:45:23;;;;;;;0.20;0.20;;;;;;;19.20;38.48;100984.50;5085957;28;20099;-31
2021/12/23 04:47:49;;;;;;;0.20;0.20;;;;;;;19.20;38.56;100987.25;5087719;28;20134;-33
2021/12/23 04:50:15;;;;;;;0.20;0.20;;;;;;;19.20;38.63;100992.78;5081573;28;20052;-32
2021/12/23 04:52:42;;;;;;;0.20;0.20;;;;;;;19.21;38.45;100990.84;5101909;28;20220;-33
2021/12/23 04:55:08;;;;;;;0.20;0.20;;;;;;;19.20;38.45;100981.75;5084345;28;20048;-34
2021/12/23 04:57:34;;;;;;;0.20;0.20;;;;;;;19.20;38.55;100989.22;5103335;28;20043;-31
2021/12/23 05:00:00;;;;;;;0.20;0.20;;;;;;;19.20;38.30;100956.91;5083975;28;20035;-33
2021/12/23 05:02:25;;;;;;;0.20;0.20;;;;;;;19.19;38.56;100948.91;5103723;28;20086;-32
2021/12/23 05:04:51;;;;;;;0.20;0.20;;;;;;;19.19;38.27;100938.69;5104867;28;20056;-32
2021/12/23 05:07:18;;;;;;;0.20;0.20;;;;;;;19.20;38.19;100959.66;5108344;28;20040;-34
2021/12/23 05:09:44;;;;;;;0.20;0.20;;;;;;;19.19;38.32;100946.97;5090584;28;20044;-33
2021/12/23 05:12:09;;;;;;;0.20;0.20;;;;;;;19.19;38.34;100962.72;5108372;28;20051;-34
2021/12/23 05:14:35;;;;;;;0.20;0.20;;;;;;;19.20;38.37;100967.13;5087002;28;20044;-32
2021/12/23 05:17:01;;;;;;;0.20;0.20;;;;;;;19.20;38.30;100967.13;5109877;28;20043;-34
2021/12/23 05:19:27;;;;;;;0.20;0.20;;;;;;;19.20;38.67;100961.59;5090650;28;20072;-32
2021/12/23 05:21:53;;;;;;;0.20;0.20;;;;;;;19.18;38.40;100934.28;5094514;28;20078;-32
2021/12/23 05:24:18;;;;;;;0.20;0.20;;;;;;;19.18;38.46;100928.75;5108358;28;20044;-34
2021/12/23 05:26:44;;;;;;;0.25;0.25;;;;;;;19.19;38.31;100924.06;5110465;28;20051;-32
2021/12/23 05:29:11;;;;;;;0.20;0.20;;;;;;;19.18;38.30;100939.81;5091242;28;20040;-31
2021/12/23 05:31:38;;;;;;;0.30;0.30;;;;;;;19.19;38.56;100946.16;5113253;28;20267;-32
2021/12/23 05:34:04;;;;;;;0.20;0.20;;;;;;;19.18;38.21;100939.81;5107783;28;20398;-32
2021/12/23 05:36:29;;;;;;;0.20;0.20;;;;;;;19.18;38.27;100931.53;5108694;28;20043;-33
2021/12/23 05:38:55;;;;;;;0.20;0.20;;;;;;;19.17;38.36;100935.41;5093640;28;20043;-32
2021/12/23 05:41:23;;;;;;;0.20;0.20;;;;;;;19.17;38.26;100918.84;5091069;28;20044;-32
2021/12/23 05:43:49;;;;;;;0.20;0.20;;;;;;;19.18;38.43;100909.44;5107719;28;20046;-31
2021/12/23 05:46:14;;;;;;;0.20;0.20;;;;;;;19.18;38.41;100903.91;5107145;28;20043;-32
2021/12/23 05:48:40;;;;;;;0.20;0.20;;;;;;;19.18;38.31;100905.84;5090862;28;20081;-31
2021/12/23 05:51:06;;;;;;;0.20;0.20;;;;;;;19.18;38.51;100919.66;5107190;28;21330;-31
2021/12/23 05:53:31;;;;;;;0.20;0.20;;;;;;;19.18;38.55;100919.66;5107747;28;20093;-32
2021/12/23 05:55:57;;;;;;;0.20;0.20;;;;;;;19.18;38.27;100911.38;5107206;28;20035;-31
2021/12/23 05:58:23;;;;;;;0.20;0.20;;;;;;;19.17;38.50;100899.50;5110333;28;20092;-32
2021/12/23 06:00:48;;;;;;;0.20;0.20;;;;;;;19.18;38.51;100886.53;5112353;28;20039;-31
2021/12/23 06:03:14;;;;;;;0.20;0.20;;;;;;;19.16;38.56;100877.69;5106069;28;20418;-32
2021/12/23 06:05:40;;;;;;;0.20;0.20;;;;;;;19.17;38.42;100887.59;5109372;28;20050;-31
2021/12/23 06:08:05;;;;;;;0.20;0.20;;;;;;;19.17;38.38;100882.94;5111162;28;20043;-31
2021/12/23 06:10:31;;;;;;;0.20;0.20;;;;;;;19.17;38.27;100880.19;5107146;28;20055;-31
2021/12/23 06:12:57;;;;;;;0.22;0.22;;;;;;;19.16;38.23;100883.19;5109231;28;20047;-31
2021/12/23 06:15:22;;;;;;;0.20;0.20;;;;;;;19.17;38.48;100882.09;5103847;28;20047;-32
2021/12/23 06:17:48;;;;;;;0.20;0.20;;;;;;;19.16;38.41;100884.03;5106893;28;20050;-31
2021/12/23 06:20:14;;;;;;;0.20;0.20;;;;;;;19.17;38.22;100879.31;5106770;28;20051;-31
2021/12/23 06:22:40;;;;;;;0.20;0.20;;;;;;;19.18;38.29;100873.53;5102808;28;20375;-31
2021/12/23 06:25:07;;;;;;;0.20;0.20;;;;;;;19.17;38.41;100882.94;5087606;28;20056;-31
2021/12/23 06:27:34;;;;;;;0.20;0.20;;;;;;;19.16;38.32;100875.75;5088407;28;20551;-31
2021/12/23 06:29:59;;;;;;;0.20;0.20;;;;;;;19.15;38.24;100876.84;5089869;28;20148;-31
2021/12/23 06:32:25;;;;;;;0.20;0.20;;;;;;;19.17;38.47;100865.53;5104955;28;20130;-32
2021/12/23 06:34:51;;;;;;;0.20;0.20;;;;;;;19.16;38.54;100864.69;5103249;28;20067;-32
2021/12/23 06:37:17;;;;;;;0.20;0.20;;;;;;;19.17;38.57;100869.13;5105633;28;20051;-32
2021/12/23 06:39:44;;;;;;;0.20;0.20;;;;;;;19.16;38.39;100875.75;5102710;28;20063;-32
2021/12/23 06:42:09;;;;;;;0.20;0.20;;;;;;;19.17;38.51;100876.56;5105370;28;20072;-32
2021/12/23 06:44:35;;;;;;;0.20;0.20;;;;;;;19.17;38.50;100879.31;5089088;28;20043;-32
2021/12/23 06:47:01;;;;;;;0.20;0.20;;;;;;;19.16;38.44;100875.75;5082430;28;20047;-32
2021/12/23 06:49:31;;;;;;;0.20;0.20;;;;;;;19.17;38.56;100880.19;5083074;28;20047;-32
2021/12/23 06:51:57;;;;;;;0.20;0.20;;;;;;;19.17;38.52;100888.47;5088277;28;20051;-32
2021/12/23 06:54:23;;;;;;;0.20;0.20;;;;;;;19.20;37.68;100885.13;5099439;28;20048;-43
2021/12/23 06:56:49;;;;;;;0.20;0.20;;;;;;;19.23;38.29;100876.28;5099822;28;20491;-42
2021/12/23 06:59:16;;;;;;;0.20;0.20;;;;;;;19.22;37.86;100862.78;5102805;28;20062;-42
2021/12/23 07:01:42;;;;;;;0.20;0.20;;;;;;;19.20;38.32;100865.78;5099963;28;20043;-42
2021/12/23 07:04:15;;;;;;;0.20;0.20;;;;;;;19.20;38.39;100860.28;5066155;28;20398;-42
2021/12/23 07:07:07;;;;;;;0.20;0.20;;;;;;;19.20;38.40;100871.31;5098122;28;20100;-42
2021/12/23 07:09:27;;;;;;;0.20;0.20;;;;;;;19.21;38.04;100884.03;5066021;28;20104;-43
2021/12/23 07:11:52;;;;;;;0.20;0.20;;;;;;;19.20;38.37;100868.56;5098049;28;20252;-42
2021/12/23 07:14:18;;;;;;;0.20;0.20;;;;;;;19.22;38.05;100866.34;5100067;28;20043;-42
2021/12/23 07:16:44;;;;;;;0.20;0.20;;;;;;;19.22;38.22;100866.34;5100261;28;20337;-42
2021/12/23 07:19:09;;;;;;;0.20;0.20;;;;;;;19.22;38.03;100857.25;5097783;28;20455;-42
2021/12/23 07:21:35;;;;;;;0.20;0.20;;;;;;;19.23;38.11;100856.13;5098950;28;20245;-41
2021/12/23 07:24:01;;;;;;;0.20;0.20;;;;;;;19.23;38.29;100856.13;5093929;28;20266;-42
2021/12/23 07:26:27;;;;;;;0.20;0.20;;;;;;;19.25;38.05;100840.09;5092405;28;20043;-41
2021/12/23 07:28:52;;;;;;;0.20;0.20;;;;;;;19.25;38.10;100849.19;5078786;28;20089;-41
2021/12/23 07:31:18;;;;;;;0.20;0.20;;;;;;;19.27;38.07;100854.47;5099957;28;20100;-41
2021/12/23 07:33:44;;;;;;;0.20;0.20;;;;;;;19.26;38.31;100856.41;5096758;28;20250;-42
2021/12/23 07:36:10;;;;;;;0.20;0.20;;;;;;;19.26;38.28;100856.41;5097560;28;20119;-42
2021/12/23 07:38:36;;;;;;;0.20;0.20;;;;;;;19.27;38.30;100854.47;5082894;28;20054;-41
2021/12/23 07:41:02;;;;;;;0.20;0.20;;;;;;;19.28;38.29;100854.16;5098254;28;20926;-42
2021/12/23 07:43:43;;;;;;;0.20;0.20;;;;;;;19.28;38.07;100848.63;5096220;28;20501;-43
2021/12/23 07:46:09;;;;;;;0.20;0.20;;;;;;;19.29;38.11;100844.75;5082891;28;20039;-45
2021/12/23 07:48:35;;;;;;;0.20;0.20;;;;;;;19.29;38.11;100844.75;5100749;28;20807;-42
2021/12/23 07:51:02;;;;;;;0.20;0.20;;;;;;;19.30;38.24;100835.41;5097731;28;20065;-45
2021/12/23 07:53:28;;;;;;;0.20;0.20;;;;;;;19.32;38.01;100843.38;5066937;28;20040;-43
2021/12/23 07:55:54;;;;;;;0.20;0.20;;;;;;;19.31;38.16;100844.50;5102425;28;20674;-44
2021/12/23 07:58:20;;;;;;;0.20;0.20;;;;;;;19.33;38.34;100844.19;5101020;28;20454;-44
2021/12/23 08:00:46;;;;;;;0.20;0.20;;;;;;;19.35;38.00;100847.53;5074886;28;20120;-44
2021/12/23 08:03:12;;;;;;;0.20;0.20;;;;;;;19.35;38.07;100850.28;5097800;28;20405;-43
2021/12/23 08:05:38;;;;;;;0.20;0.20;;;;;;;19.33;38.15;100836.75;5095591;28;20047;-45
2021/12/23 08:08:04;;;;;;;0.20;0.20;;;;;;;19.34;38.06;100834.81;5090272;28;20406;-41
2021/12/23 08:10:30;;;;;;;0.20;0.20;;;;;;;19.34;38.11;100830.09;5089980;28;20055;-41
2021/12/23 08:12:56;;;;;;;0.20;0.20;;;;;;;19.37;38.12;100842.53;5094677;28;20085;-40
2021/12/23 08:15:22;;;;;;;0.20;0.20;;;;;;;19.36;38.28;100847.22;5096958;28;20073;-40
2021/12/23 08:17:48;;;;;;;0.20;0.20;;;;;;;19.35;38.21;100842.00;5079142;28;20094;-41
2021/12/23 08:20:15;;;;;;;0.20;0.20;;;;;;;19.36;38.12;100841.72;5093837;28;20329;-43
2021/12/23 08:22:41;;;;;;;0.20;0.20;;;;;;;19.37;38.15;100845.28;5079120;28;20398;-43
2021/12/23 08:25:08;;;;;;;0.20;0.20;;;;;;;19.34;37.95;100841.16;5061261;28;20052;-45
2021/12/23 08:27:34;;;;;;;0.20;0.20;;;;;;;19.37;38.21;100845.28;5079968;28;20075;-43
2021/12/23 08:30:01;;;;;;;0.20;0.20;;;;;;;19.37;38.10;100845.28;5079042;28;20584;-41
2021/12/23 08:32:26;;;;;;;0.20;0.20;;;;;;;19.35;38.00;100842.00;5096854;28;20047;-41
2021/12/23 08:34:52;;;;;;;0.20;0.20;;;;;;;19.36;37.97;100838.94;5077628;28;20043;-42
2021/12/23 08:37:18;;;;;;;0.20;0.20;;;;;;;19.36;38.10;100840.88;5096468;28;20614;-44
2021/12/23 08:39:44;;;;;;;0.20;0.20;;;;;;;19.36;38.23;100833.41;5074730;28;20479;-42
2021/12/23 08:42:10;;;;;;;0.20;0.20;;;;;;;19.36;38.15;100832.59;5097535;28;20123;-41
2021/12/23 08:44:36;;;;;;;0.20;0.20;;;;;;;19.37;37.92;100825.97;5084546;28;20179;-44
2021/12/23 08:47:02;;;;;;;0.20;0.20;;;;;;;19.36;37.13;100825.13;5109740;28;20517;-34
2021/12/23 08:49:28;;;;;;;0.20;0.20;;;;;;;19.39;37.57;100821.81;5090368;28;20121;-34
2021/12/23 08:51:55;;;;;;;0.20;0.20;;;;;;;19.42;37.74;100831.44;5077268;28;20850;-34
2021/12/23 08:54:20;;;;;;;0.20;0.20;;;;;;;19.42;37.26;100821.22;5099298;28;20452;-35
2021/12/23 08:56:46;;;;;;;0.20;0.20;;;;;;;19.45;37.29;100823.44;5087602;28;20056;-34
2021/12/23 08:59:12;;;;;;;0.20;0.20;;;;;;;19.46;37.72;100821.47;5081568;28;20050;-34
2021/12/23 09:01:40;;;;;;;0.20;0.20;;;;;;;19.45;37.73;100822.59;5104331;28;20043;-34
2021/12/23 09:04:06;;;;;;;0.17;0.17;;;;;;;19.44;37.48;100818.19;5087289;28;20474;-34
2021/12/23 09:06:32;;;;;;;0.10;0.10;;;;;;;19.44;37.67;100818.19;5100057;28;20047;-33
2021/12/23 09:08:58;;;;;;;0.20;0.20;;;;;;;19.44;37.73;100826.47;5095976;28;20071;-35
2021/12/23 09:11:24;;;;;;;0.20;0.20;;;;;;;19.44;37.79;100832.84;5097176;28;20490;-35
2021/12/23 09:13:50;;;;;;;0.20;0.20;;;;;;;19.45;37.81;100825.38;5084169;28;20143;-34
2021/12/23 09:16:16;;;;;;;0.20;0.20;;;;;;;19.46;37.70;100821.47;5079000;28;20054;-34
2021/12/23 09:18:42;;;;;;;0.20;0.20;;;;;;;19.46;37.80;100822.31;5102853;28;20040;-34
2021/12/23 09:21:07;;;;;;;0.20;0.20;;;;;;;19.46;37.57;100819.53;5096104;28;20104;-34
2021/12/23 09:23:53;;;;;;;0.20;0.20;;;;;;;19.46;37.83;100816.78;5069327;28;20059;-33
2021/12/23 09:26:19;;;;;;;0.20;0.20;;;;;;;19.38;36.56;100817.38;5099140;28;20047;-33
2021/12/23 09:29:02;;;;;;;0.20;0.20;;;;;;;19.47;36.43;100807.41;5073137;28;20120;-34
2021/12/23 09:34:14;;;;;;;0.20;0.20;;;;;;;19.52;37.15;100799.09;5077571;28;20043;-34
2021/12/23 09:36:40;;;;;;;0.20;0.20;;;;;;;19.54;37.08;100798.78;5093662;28;20063;-33
2021/12/23 09:39:08;;;;;;;0.20;0.20;;;;;;;19.55;37.14;100794.91;5089496;28;20438;-33
2021/12/23 09:41:38;;;;;;;0.20;0.20;;;;;;;19.57;37.12;100789.13;5090886;28;20135;-33
2021/12/23 09:44:05;;;;;;;0.20;0.20;;;;;;;19.60;37.11;100791.28;5067446;28;20421;-33
2021/12/23 09:46:34;;;;;;;0.20;0.20;;;;;;;19.61;37.33;100791.06;5090109;28;20058;-33
2021/12/23 09:49:01;;;;;;;0.20;0.20;;;;;;;19.59;36.47;100786.88;5074786;28;20057;-32
2021/12/23 09:51:28;;;;;;;0.20;0.20;;;;;;;19.65;36.80;100786.59;5099247;28;20565;-32
2021/12/23 09:54:01;;;;;;;0.20;0.20;;;;;;;19.69;36.93;100781.31;5080051;28;20466;-32
2021/12/23 09:56:28;;;;;;;0.20;0.20;;;;;;;19.68;36.99;100785.19;5080534;28;22471;-32
2021/12/23 09:58:57;;;;;;;0.20;0.20;;;;;;;19.68;37.15;100793.47;5055120;28;20059;-32
2021/12/23 10:01:27;;;;;;;0.20;0.20;;;;;;;19.69;37.23;100789.59;5082950;28;20039;-32
2021/12/23 10:03:53;;;;;;;0.20;0.20;;;;;;;19.69;36.88;100784.06;5095333;28;20048;-34
2021/12/23 10:06:19;;;;;;;0.20;0.20;;;;;;;19.69;37.21;100779.41;5092655;28;20050;-32
2021/12/23 10:08:45;;;;;;;0.20;0.20;;;;;;;19.70;37.10;100775.50;5091492;28;20811;-38
2021/12/23 10:11:28;;;;;;;0.20;0.20;;;;;;;19.71;37.12;100771.63;5098009;28;20105;-34
2021/12/23 10:31:37;;;;;;;0.20;0.20;;;;;;;19.77;37.36;100723.50;5084154;28;20054;-32
2021/12/23 10:39:52;;;;;;;0.20;0.20;;;;;;;19.78;37.24;100718.81;5137826;27;20210;-31
2021/12/23 10:42:22;;;;;;;0.20;0.20;;;;;;;19.78;37.37;100719.63;5106684;27;20135;-33
2021/12/23 10:44:49;;;;;;;0.20;0.20;;;;;;;19.79;37.07;100701.94;5106442;27;20034;-31
2021/12/23 10:47:40;;;;;;;0.20;0.20;;;;;;;19.73;35.38;100688.44;5121267;27;20061;-44
2021/12/23 10:50:16;;;;;;;0.20;0.20;;;;;;;19.81;36.17;100685.03;5101116;27;20306;-45
2021/12/23 10:53:03;;;;;;;0.20;0.20;;;;;;;19.85;36.58;100680.59;5103576;27;20494;-44
2021/12/23 10:58:16;;;;;;;0.20;0.20;;;;;;;19.86;36.63;100681.41;5101888;27;20347;-44
2021/12/23 11:00:46;;;;;;;0.20;0.20;;;;;;;19.86;36.70;100681.41;5110838;27;20259;-42
2021/12/23 11:03:25;;;;;;;0.20;0.20;;;;;;;19.87;36.97;100672.03;5126757;27;20130;-42
2021/12/23 11:06:21;;;;;;;0.20;0.20;;;;;;;19.87;36.95;100674.78;5111031;27;20535;-41
2021/12/23 11:08:55;;;;;;;0.20;0.20;;;;;;;19.87;36.64;100652.69;5116646;27;20051;-42
2021/12/23 11:42:17;;;;;;;0.20;0.20;;;;;;;19.93;37.24;100610.88;5147948;27;20202;-32
2021/12/23 11:44:41;;;;;;;0.20;0.20;;;;;;;19.94;36.78;100606.16;5109712;27;20147;-32
2021/12/23 11:47:13;;;;;;;0.20;0.20;;;;;;;19.94;36.86;100603.38;5121547;27;20078;-35
2021/12/23 11:49:41;;;;;;;0.20;0.20;;;;;;;19.95;36.89;100600.34;5105718;27;20050;-36
2021/12/23 11:52:07;;;;;;;0.20;0.20;;;;;;;19.95;36.67;100588.47;5105509;27;20372;-32
2021/12/23 11:54:35;;;;;;;0.20;0.20;;;;;;;19.93;36.19;100602.56;5106079;27;20043;-33
2021/12/23 11:57:06;;;;;;;0.17;0.17;;;;;;;19.82;32.08;100594.69;5110912;27;20046;-43
2021/12/23 11:59:35;;;;;;;0.20;0.20;;;;;;;19.89;33.28;100597.94;5123602;27;20047;-46
2021/12/23 12:02:01;;;;;;;0.20;0.20;;;;;;;19.84;32.55;100593.28;5106856;27;20051;-37
2021/12/23 12:04:30;;;;;;;0.20;0.20;;;;;;;19.91;32.39;100574.41;5123181;27;20122;-41
2021/12/23 12:06:57;;;;;;;0.20;0.20;;;;;;;19.93;33.29;100571.34;5115072;27;20552;-41
2021/12/23 12:09:27;;;;;;;0.20;0.20;;;;;;;20.01;33.61;100571.53;5110836;27;20051;-34
2021/12/23 12:12:06;;;;;;;0.20;0.20;;;;;;;20.03;34.06;100572.06;5119286;27;20359;-34
2021/12/23 12:17:34;;;;;;;0.20;0.20;;;;;;;20.04;34.75;100559.88;5143108;27;20270;-32
2021/12/23 12:20:08;;;;;;;0.20;0.20;;;;;;;20.04;34.76;100551.59;5105598;27;20053;-39
2021/12/23 12:23:06;;;;;;;0.10;0.10;;;;;;;20.04;34.84;100551.59;5122881;27;20043;-33
2021/12/23 12:28:21;;;;;;;0.20;0.20;;;;;;;20.05;35.18;100544.94;5143934;27;20656;-32
2021/12/23 12:30:59;;;;;;;0.20;0.20;;;;;;;20.05;35.34;100536.66;5127835;27;20053;-32
2021/12/23 12:36:06;;;;;;;0.20;0.20;;;;;;;20.06;35.10;100523.66;5150876;27;20570;-33